Las Animas, Colorado
Current Conditions -  °F | °C
As of 1:53 PM on Sunday 23 Nov 2014 (Local Time) from KLHX Reporting Station
Clear Clear  
Wind Chill: 40°   Ceiling: Unl
Heat Index: 46°   Visibility: 10mi
Dew Point: 16°   Wind: 15mph
Humidity: 30%   Direction: 350°N
Pressure: 29.77"   Gusts: NA
Location:  38.07°N, 103.22°W
Report Text: KLHX 232053Z AUTO 35013KT 10SM CLR 08/M09 A2977 RMK AO2 SLP062 T00781089 58007 $
Loading
Personal Weather Stations






























Interactive Weather Map New forecast layout! Learn more

10-Day Weather Forecast

Advertisements
Track Severe Weather on mobile